Terminal Aerodrome Forecast
Issued by NWS

Home | Current Version | Previous Version | Text Only | Print | Product List | Glossary On
Versions: 1 2 3 4 5 6 7 8 9 10 11 12 13 14 15 16 17
000
FTUS45 KREV 192031 AAB
TAFTVL
TAF AMD
KTVL 192031Z 1921/2018 19008KT 1/2SM SN VV005 WS020/23030KT
     FM192300 19009KT 2SM -SHSN FEW007 BKN015
     FM200200 20012G20KT 5SM -SHSN FEW010 BKN025
     FM201100 20010G18KT 1SM -SN OVC010=

USA.gov is the U.S. government's official web portal to all federal, state and local government web resources and services.